sensor_id;sensor_type;location;lat;lon;timestamp;P1;durP1;ratioP1;P2;durP2;ratioP2
22230;SDS011;11284;48.086;-1.652;2023-05-07T00:01:51;12.15;;;4.28;;
22230;SDS011;11284;48.086;-1.652;2023-05-07T00:04:17;10.27;;;4.43;;
22230;SDS011;11284;48.086;-1.652;2023-05-07T00:06:43;11.75;;;4.30;;
22230;SDS011;11284;48.086;-1.652;2023-05-07T00:09:09;12.63;;;4.07;;
22230;SDS011;11284;48.086;-1.652;2023-05-07T00:11:35;10.65;;;4.30;;
22230;SDS011;11284;48.086;-1.652;2023-05-07T00:14:01;12.10;;;4.22;;
22230;SDS011;11284;48.086;-1.652;2023-05-07T00:16:27;11.65;;;4.18;;
22230;SDS011;11284;48.086;-1.652;2023-05-07T00:18:53;10.18;;;3.90;;
22230;SDS011;11284;48.086;-1.652;2023-05-07T00:21:19;11.60;;;4.03;;
22230;SDS011;11284;48.086;-1.652;2023-05-07T00:23:46;16.40;;;4.05;;
22230;SDS011;11284;48.086;-1.652;2023-05-07T00:26:12;13.18;;;4.28;;
22230;SDS011;11284;48.086;-1.652;2023-05-07T00:28:38;13.00;;;4.50;;
22230;SDS011;11284;48.086;-1.652;2023-05-07T00:31:04;12.88;;;3.92;;
22230;SDS011;11284;48.086;-1.652;2023-05-07T00:33:30;12.32;;;3.75;;
22230;SDS011;11284;48.086;-1.652;2023-05-07T00:35:56;13.25;;;4.60;;
22230;SDS011;11284;48.086;-1.652;2023-05-07T00:38:22;10.90;;;4.47;;
22230;SDS011;11284;48.086;-1.652;2023-05-07T00:40:48;11.30;;;4.30;;
22230;SDS011;11284;48.086;-1.652;2023-05-07T00:43:15;10.70;;;4.30;;
22230;SDS011;11284;48.086;-1.652;2023-05-07T00:45:42;11.48;;;4.00;;
22230;SDS011;11284;48.086;-1.652;2023-05-07T00:48:08;9.95;;;4.13;;
22230;SDS011;11284;48.086;-1.652;2023-05-07T00:50:34;11.40;;;4.32;;
22230;SDS011;11284;48.086;-1.652;2023-05-07T00:53:00;12.18;;;4.28;;
22230;SDS011;11284;48.086;-1.652;2023-05-07T00:55:27;11.43;;;4.18;;
22230;SDS011;11284;48.086;-1.652;2023-05-07T00:57:53;12.35;;;4.80;;
22230;SDS011;11284;48.086;-1.652;2023-05-07T01:00:19;11.88;;;4.57;;
22230;SDS011;11284;48.086;-1.652;2023-05-07T01:02:46;13.80;;;4.95;;
22230;SDS011;11284;48.086;-1.652;2023-05-07T01:05:13;12.05;;;3.85;;
22230;SDS011;11284;48.086;-1.652;2023-05-07T01:07:40;12.18;;;4.32;;
22230;SDS011;11284;48.086;-1.652;2023-05-07T01:10:06;12.00;;;4.22;;
22230;SDS011;11284;48.086;-1.652;2023-05-07T01:12:33;11.02;;;3.85;;
22230;SDS011;11284;48.086;-1.652;2023-05-07T01:15:00;12.30;;;4.22;;
22230;SDS011;11284;48.086;-1.652;2023-05-07T01:17:26;13.60;;;4.68;;
22230;SDS011;11284;48.086;-1.652;2023-05-07T01:19:52;12.50;;;3.92;;
22230;SDS011;11284;48.086;-1.652;2023-05-07T01:22:34;13.20;;;4.15;;
22230;SDS011;11284;48.086;-1.652;2023-05-07T01:25:04;14.93;;;3.92;;
22230;SDS011;11284;48.086;-1.652;2023-05-07T01:27:30;11.98;;;4.57;;
22230;SDS011;11284;48.086;-1.652;2023-05-07T01:29:58;11.63;;;4.10;;
22230;SDS011;11284;48.086;-1.652;2023-05-07T01:32:48;15.30;;;4.38;;
22230;SDS011;11284;48.086;-1.652;2023-05-07T01:35:11;12.80;;;4.15;;
22230;SDS011;11284;48.086;-1.652;2023-05-07T01:37:38;12.60;;;4.03;;
22230;SDS011;11284;48.086;-1.652;2023-05-07T01:40:05;10.63;;;4.13;;
22230;SDS011;11284;48.086;-1.652;2023-05-07T01:42:32;13.68;;;3.83;;
22230;SDS011;11284;48.086;-1.652;2023-05-07T01:44:58;15.65;;;4.70;;
22230;SDS011;11284;48.086;-1.652;2023-05-07T01:47:24;13.13;;;4.57;;
22230;SDS011;11284;48.086;-1.652;2023-05-07T01:49:51;10.00;;;3.90;;
22230;SDS011;11284;48.086;-1.652;2023-05-07T01:52:17;13.38;;;4.03;;
22230;SDS011;11284;48.086;-1.652;2023-05-07T01:54:43;11.30;;;3.72;;
22230;SDS011;11284;48.086;-1.652;2023-05-07T01:57:09;11.10;;;4.20;;
22230;SDS011;11284;48.086;-1.652;2023-05-07T01:59:35;13.70;;;4.50;;
22230;SDS011;11284;48.086;-1.652;2023-05-07T02:02:01;10.73;;;4.18;;
22230;SDS011;11284;48.086;-1.652;2023-05-07T02:04:27;11.40;;;4.65;;
22230;SDS011;11284;48.086;-1.652;2023-05-07T02:06:53;10.23;;;4.03;;
22230;SDS011;11284;48.086;-1.652;2023-05-07T02:09:19;10.65;;;4.07;;
22230;SDS011;11284;48.086;-1.652;2023-05-07T02:11:45;11.00;;;4.32;;
22230;SDS011;11284;48.086;-1.652;2023-05-07T02:14:11;11.85;;;3.92;;
22230;SDS011;11284;48.086;-1.652;2023-05-07T02:16:37;13.95;;;4.05;;
22230;SDS011;11284;48.086;-1.652;2023-05-07T02:19:03;15.05;;;4.53;;
22230;SDS011;11284;48.086;-1.652;2023-05-07T02:21:30;12.10;;;4.15;;
22230;SDS011;11284;48.086;-1.652;2023-05-07T02:23:56;13.23;;;4.20;;
22230;SDS011;11284;48.086;-1.652;2023-05-07T02:26:22;14.35;;;4.60;;
22230;SDS011;11284;48.086;-1.652;2023-05-07T02:28:48;13.48;;;3.90;;
22230;SDS011;11284;48.086;-1.652;2023-05-07T02:31:14;15.25;;;4.28;;
22230;SDS011;11284;48.086;-1.652;2023-05-07T02:33:40;12.50;;;4.20;;
22230;SDS011;11284;48.086;-1.652;2023-05-07T02:36:09;12.45;;;4.40;;
22230;SDS011;11284;48.086;-1.652;2023-05-07T02:38:35;14.35;;;4.60;;
22230;SDS011;11284;48.086;-1.652;2023-05-07T02:41:02;11.30;;;4.10;;
22230;SDS011;11284;48.086;-1.652;2023-05-07T02:43:28;14.43;;;4.78;;
22230;SDS011;11284;48.086;-1.652;2023-05-07T02:46:03;13.73;;;4.45;;
22230;SDS011;11284;48.086;-1.652;2023-05-07T02:48:29;13.80;;;4.60;;
22230;SDS011;11284;48.086;-1.652;2023-05-07T02:50:56;14.20;;;4.35;;
22230;SDS011;11284;48.086;-1.652;2023-05-07T02:53:22;11.75;;;4.00;;
22230;SDS011;11284;48.086;-1.652;2023-05-07T02:55:50;14.52;;;4.07;;
22230;SDS011;11284;48.086;-1.652;2023-05-07T02:58:16;14.57;;;4.78;;
22230;SDS011;11284;48.086;-1.652;2023-05-07T03:00:51;10.55;;;4.40;;
22230;SDS011;11284;48.086;-1.652;2023-05-07T03:03:19;12.65;;;4.40;;
22230;SDS011;11284;48.086;-1.652;2023-05-07T03:05:45;14.05;;;4.55;;
22230;SDS011;11284;48.086;-1.652;2023-05-07T03:08:11;17.58;;;4.78;;
22230;SDS011;11284;48.086;-1.652;2023-05-07T03:10:37;15.48;;;5.15;;
22230;SDS011;11284;48.086;-1.652;2023-05-07T03:13:04;12.15;;;4.55;;
22230;SDS011;11284;48.086;-1.652;2023-05-07T03:15:30;18.13;;;4.22;;
22230;SDS011;11284;48.086;-1.652;2023-05-07T03:17:56;13.57;;;4.47;;
22230;SDS011;11284;48.086;-1.652;2023-05-07T03:20:22;13.77;;;4.15;;
22230;SDS011;11284;48.086;-1.652;2023-05-07T03:22:48;13.25;;;4.88;;
22230;SDS011;11284;48.086;-1.652;2023-05-07T03:25:14;12.90;;;4.10;;
22230;SDS011;11284;48.086;-1.652;2023-05-07T03:27:40;13.38;;;4.40;;
22230;SDS011;11284;48.086;-1.652;2023-05-07T03:30:07;12.43;;;4.30;;
22230;SDS011;11284;48.086;-1.652;2023-05-07T03:32:33;17.20;;;5.18;;
22230;SDS011;11284;48.086;-1.652;2023-05-07T03:35:00;11.68;;;4.57;;
22230;SDS011;11284;48.086;-1.652;2023-05-07T03:37:26;14.70;;;4.63;;
22230;SDS011;11284;48.086;-1.652;2023-05-07T03:39:52;18.33;;;4.68;;
22230;SDS011;11284;48.086;-1.652;2023-05-07T03:42:19;12.63;;;5.07;;
22230;SDS011;11284;48.086;-1.652;2023-05-07T03:44:45;13.68;;;5.13;;
22230;SDS011;11284;48.086;-1.652;2023-05-07T03:47:11;14.48;;;4.90;;
22230;SDS011;11284;48.086;-1.652;2023-05-07T03:49:38;15.70;;;4.55;;
22230;SDS011;11284;48.086;-1.652;2023-05-07T03:52:04;13.57;;;5.15;;
22230;SDS011;11284;48.086;-1.652;2023-05-07T03:54:30;15.15;;;4.97;;
22230;SDS011;11284;48.086;-1.652;2023-05-07T03:56:56;14.40;;;4.60;;
22230;SDS011;11284;48.086;-1.652;2023-05-07T03:59:22;14.05;;;4.88;;
22230;SDS011;11284;48.086;-1.652;2023-05-07T04:01:48;13.75;;;4.45;;
22230;SDS011;11284;48.086;-1.652;2023-05-07T04:04:15;12.77;;;4.80;;
22230;SDS011;11284;48.086;-1.652;2023-05-07T04:06:41;16.08;;;4.00;;
22230;SDS011;11284;48.086;-1.652;2023-05-07T04:09:07;11.45;;;4.80;;
22230;SDS011;11284;48.086;-1.652;2023-05-07T04:11:33;10.60;;;4.05;;
22230;SDS011;11284;48.086;-1.652;2023-05-07T04:13:59;12.98;;;4.60;;
22230;SDS011;11284;48.086;-1.652;2023-05-07T04:16:25;11.90;;;4.30;;
22230;SDS011;11284;48.086;-1.652;2023-05-07T04:18:51;11.48;;;4.10;;
22230;SDS011;11284;48.086;-1.652;2023-05-07T04:21:18;13.10;;;4.53;;
22230;SDS011;11284;48.086;-1.652;2023-05-07T04:23:46;13.15;;;4.07;;
22230;SDS011;11284;48.086;-1.652;2023-05-07T04:26:12;10.45;;;4.10;;
22230;SDS011;11284;48.086;-1.652;2023-05-07T04:28:38;9.70;;;4.05;;
22230;SDS011;11284;48.086;-1.652;2023-05-07T04:31:05;8.70;;;4.10;;
22230;SDS011;11284;48.086;-1.652;2023-05-07T04:33:31;9.02;;;3.58;;
22230;SDS011;11284;48.086;-1.652;2023-05-07T04:35:57;8.98;;;3.65;;
22230;SDS011;11284;48.086;-1.652;2023-05-07T04:38:28;8.73;;;4.07;;
22230;SDS011;11284;48.086;-1.652;2023-05-07T04:40:55;10.90;;;4.18;;
22230;SDS011;11284;48.086;-1.652;2023-05-07T04:43:22;8.77;;;3.88;;
22230;SDS011;11284;48.086;-1.652;2023-05-07T04:45:49;12.02;;;3.90;;
22230;SDS011;11284;48.086;-1.652;2023-05-07T04:48:15;8.23;;;3.92;;
22230;SDS011;11284;48.086;-1.652;2023-05-07T04:50:44;10.18;;;3.95;;
22230;SDS011;11284;48.086;-1.652;2023-05-07T04:53:10;10.68;;;4.00;;
22230;SDS011;11284;48.086;-1.652;2023-05-07T04:55:36;7.30;;;3.55;;
22230;SDS011;11284;48.086;-1.652;2023-05-07T04:58:02;8.93;;;3.67;;
22230;SDS011;11284;48.086;-1.652;2023-05-07T05:00:29;11.95;;;4.05;;
22230;SDS011;11284;48.086;-1.652;2023-05-07T05:02:55;9.70;;;3.80;;
22230;SDS011;11284;48.086;-1.652;2023-05-07T05:05:21;10.18;;;3.67;;
22230;SDS011;11284;48.086;-1.652;2023-05-07T05:07:47;7.95;;;3.80;;
22230;SDS011;11284;48.086;-1.652;2023-05-07T05:10:13;10.18;;;3.90;;
22230;SDS011;11284;48.086;-1.652;2023-05-07T05:12:41;7.93;;;3.58;;
22230;SDS011;11284;48.086;-1.652;2023-05-07T05:15:07;8.60;;;4.00;;
22230;SDS011;11284;48.086;-1.652;2023-05-07T05:17:33;7.60;;;3.55;;
22230;SDS011;11284;48.086;-1.652;2023-05-07T05:20:00;9.02;;;4.05;;
22230;SDS011;11284;48.086;-1.652;2023-05-07T05:22:26;8.77;;;3.53;;
22230;SDS011;11284;48.086;-1.652;2023-05-07T05:24:54;8.65;;;3.72;;
22230;SDS011;11284;48.086;-1.652;2023-05-07T05:27:20;9.75;;;4.25;;
22230;SDS011;11284;48.086;-1.652;2023-05-07T05:29:46;6.43;;;3.60;;
22230;SDS011;11284;48.086;-1.652;2023-05-07T05:32:12;9.43;;;3.83;;
22230;SDS011;11284;48.086;-1.652;2023-05-07T05:34:39;8.10;;;3.53;;
22230;SDS011;11284;48.086;-1.652;2023-05-07T05:37:05;8.80;;;3.80;;
22230;SDS011;11284;48.086;-1.652;2023-05-07T05:39:31;7.07;;;3.90;;
22230;SDS011;11284;48.086;-1.652;2023-05-07T05:41:57;8.23;;;3.85;;
22230;SDS011;11284;48.086;-1.652;2023-05-07T05:44:23;7.68;;;3.53;;
22230;SDS011;11284;48.086;-1.652;2023-05-07T05:46:49;8.02;;;3.88;;
22230;SDS011;11284;48.086;-1.652;2023-05-07T05:49:15;8.35;;;3.63;;
22230;SDS011;11284;48.086;-1.652;2023-05-07T05:51:41;10.55;;;4.32;;
22230;SDS011;11284;48.086;-1.652;2023-05-07T05:54:07;9.63;;;4.38;;
22230;SDS011;11284;48.086;-1.652;2023-05-07T05:56:33;8.60;;;3.78;;
22230;SDS011;11284;48.086;-1.652;2023-05-07T05:58:59;7.70;;;3.95;;
22230;SDS011;11284;48.086;-1.652;2023-05-07T06:01:25;10.30;;;3.88;;
22230;SDS011;11284;48.086;-1.652;2023-05-07T06:03:51;9.68;;;4.13;;
22230;SDS011;11284;48.086;-1.652;2023-05-07T06:06:17;10.45;;;3.83;;
22230;SDS011;11284;48.086;-1.652;2023-05-07T06:08:44;7.80;;;3.50;;
22230;SDS011;11284;48.086;-1.652;2023-05-07T06:11:10;7.32;;;3.63;;
22230;SDS011;11284;48.086;-1.652;2023-05-07T06:13:36;8.48;;;4.05;;
22230;SDS011;11284;48.086;-1.652;2023-05-07T06:16:02;7.85;;;4.30;;
22230;SDS011;11284;48.086;-1.652;2023-05-07T06:18:28;7.88;;;3.90;;
22230;SDS011;11284;48.086;-1.652;2023-05-07T06:20:54;9.20;;;4.25;;
22230;SDS011;11284;48.086;-1.652;2023-05-07T06:23:20;9.25;;;3.60;;
22230;SDS011;11284;48.086;-1.652;2023-05-07T06:25:49;8.48;;;3.78;;
22230;SDS011;11284;48.086;-1.652;2023-05-07T06:28:16;10.43;;;4.28;;
22230;SDS011;11284;48.086;-1.652;2023-05-07T06:30:42;8.30;;;4.00;;
22230;SDS011;11284;48.086;-1.652;2023-05-07T06:33:08;8.23;;;3.55;;
22230;SDS011;11284;48.086;-1.652;2023-05-07T06:35:34;8.68;;;4.13;;
22230;SDS011;11284;48.086;-1.652;2023-05-07T06:38:00;7.85;;;3.88;;
22230;SDS011;11284;48.086;-1.652;2023-05-07T06:40:26;8.85;;;4.10;;
22230;SDS011;11284;48.086;-1.652;2023-05-07T06:42:52;8.30;;;4.47;;
22230;SDS011;11284;48.086;-1.652;2023-05-07T06:45:22;7.25;;;3.88;;
22230;SDS011;11284;48.086;-1.652;2023-05-07T06:47:48;9.55;;;4.63;;
22230;SDS011;11284;48.086;-1.652;2023-05-07T06:50:14;8.15;;;4.43;;
22230;SDS011;11284;48.086;-1.652;2023-05-07T06:52:42;8.93;;;4.30;;
22230;SDS011;11284;48.086;-1.652;2023-05-07T06:55:08;9.10;;;4.38;;
22230;SDS011;11284;48.086;-1.652;2023-05-07T06:57:34;8.98;;;4.30;;
22230;SDS011;11284;48.086;-1.652;2023-05-07T07:00:00;6.43;;;4.05;;
22230;SDS011;11284;48.086;-1.652;2023-05-07T07:02:26;7.88;;;4.30;;
22230;SDS011;11284;48.086;-1.652;2023-05-07T07:04:52;7.15;;;4.03;;
22230;SDS011;11284;48.086;-1.652;2023-05-07T07:07:18;6.78;;;4.13;;
22230;SDS011;11284;48.086;-1.652;2023-05-07T07:09:44;7.18;;;4.10;;
22230;SDS011;11284;48.086;-1.652;2023-05-07T07:12:10;7.63;;;4.22;;
22230;SDS011;11284;48.086;-1.652;2023-05-07T07:14:36;7.68;;;3.92;;
22230;SDS011;11284;48.086;-1.652;2023-05-07T07:17:02;6.95;;;4.03;;
22230;SDS011;11284;48.086;-1.652;2023-05-07T07:19:30;7.85;;;3.67;;
22230;SDS011;11284;48.086;-1.652;2023-05-07T07:21:56;6.50;;;3.65;;
22230;SDS011;11284;48.086;-1.652;2023-05-07T07:24:22;7.60;;;3.72;;
22230;SDS011;11284;48.086;-1.652;2023-05-07T07:26:48;6.70;;;3.70;;
22230;SDS011;11284;48.086;-1.652;2023-05-07T07:29:14;6.28;;;3.30;;
22230;SDS011;11284;48.086;-1.652;2023-05-07T07:31:40;6.35;;;3.13;;
22230;SDS011;11284;48.086;-1.652;2023-05-07T07:34:06;5.07;;;3.13;;
22230;SDS011;11284;48.086;-1.652;2023-05-07T07:36:32;5.25;;;3.13;;
22230;SDS011;11284;48.086;-1.652;2023-05-07T07:38:58;8.10;;;3.53;;
22230;SDS011;11284;48.086;-1.652;2023-05-07T07:41:24;6.03;;;3.72;;
22230;SDS011;11284;48.086;-1.652;2023-05-07T07:43:50;9.00;;;4.25;;
22230;SDS011;11284;48.086;-1.652;2023-05-07T07:46:16;7.82;;;4.50;;
22230;SDS011;11284;48.086;-1.652;2023-05-07T07:48:42;8.60;;;4.90;;
22230;SDS011;11284;48.086;-1.652;2023-05-07T07:51:08;10.00;;;5.68;;
22230;SDS011;11284;48.086;-1.652;2023-05-07T07:53:34;9.35;;;5.72;;
22230;SDS011;11284;48.086;-1.652;2023-05-07T07:56:00;9.90;;;5.20;;
22230;SDS011;11284;48.086;-1.652;2023-05-07T07:58:26;8.10;;;5.13;;
22230;SDS011;11284;48.086;-1.652;2023-05-07T08:00:52;11.27;;;5.75;;
22230;SDS011;11284;48.086;-1.652;2023-05-07T08:03:20;10.30;;;5.45;;
22230;SDS011;11284;48.086;-1.652;2023-05-07T08:05:46;10.30;;;5.65;;
22230;SDS011;11284;48.086;-1.652;2023-05-07T08:08:14;8.93;;;5.85;;
22230;SDS011;11284;48.086;-1.652;2023-05-07T08:10:40;9.90;;;6.60;;
22230;SDS011;11284;48.086;-1.652;2023-05-07T08:13:06;10.18;;;6.18;;
22230;SDS011;11284;48.086;-1.652;2023-05-07T08:15:32;11.77;;;7.18;;
22230;SDS011;11284;48.086;-1.652;2023-05-07T08:17:58;10.02;;;6.63;;
22230;SDS011;11284;48.086;-1.652;2023-05-07T08:20:28;11.43;;;6.95;;
22230;SDS011;11284;48.086;-1.652;2023-05-07T08:22:54;11.38;;;7.05;;
22230;SDS011;11284;48.086;-1.652;2023-05-07T08:25:20;16.30;;;11.15;;
22230;SDS011;11284;48.086;-1.652;2023-05-07T08:27:46;11.15;;;7.38;;
22230;SDS011;11284;48.086;-1.652;2023-05-07T08:30:12;11.57;;;6.90;;
22230;SDS011;11284;48.086;-1.652;2023-05-07T08:32:39;10.18;;;6.38;;
22230;SDS011;11284;48.086;-1.652;2023-05-07T08:35:05;9.90;;;6.20;;
22230;SDS011;11284;48.086;-1.652;2023-05-07T08:37:31;10.60;;;6.05;;
22230;SDS011;11284;48.086;-1.652;2023-05-07T08:39:57;9.98;;;5.35;;
22230;SDS011;11284;48.086;-1.652;2023-05-07T08:42:23;11.85;;;6.20;;
22230;SDS011;11284;48.086;-1.652;2023-05-07T08:44:52;9.57;;;6.32;;
22230;SDS011;11284;48.086;-1.652;2023-05-07T08:47:22;8.70;;;5.45;;
22230;SDS011;11284;48.086;-1.652;2023-05-07T08:49:51;8.55;;;5.40;;
22230;SDS011;11284;48.086;-1.652;2023-05-07T08:52:17;7.90;;;4.80;;
22230;SDS011;11284;48.086;-1.652;2023-05-07T08:54:45;8.65;;;5.25;;
22230;SDS011;11284;48.086;-1.652;2023-05-07T08:57:11;12.07;;;7.60;;
22230;SDS011;11284;48.086;-1.652;2023-05-07T08:59:37;8.77;;;5.10;;
22230;SDS011;11284;48.086;-1.652;2023-05-07T09:02:03;8.73;;;5.43;;
22230;SDS011;11284;48.086;-1.652;2023-05-07T09:04:29;8.75;;;5.78;;
22230;SDS011;11284;48.086;-1.652;2023-05-07T09:06:56;8.65;;;5.25;;
22230;SDS011;11284;48.086;-1.652;2023-05-07T09:09:28;8.85;;;5.45;;
22230;SDS011;11284;48.086;-1.652;2023-05-07T09:11:57;8.18;;;5.30;;
22230;SDS011;11284;48.086;-1.652;2023-05-07T09:14:24;8.35;;;5.40;;
22230;SDS011;11284;48.086;-1.652;2023-05-07T09:16:51;10.27;;;5.20;;
22230;SDS011;11284;48.086;-1.652;2023-05-07T09:19:21;7.65;;;4.80;;
22230;SDS011;11284;48.086;-1.652;2023-05-07T09:21:48;8.13;;;5.13;;
22230;SDS011;11284;48.086;-1.652;2023-05-07T09:24:15;6.75;;;4.28;;
22230;SDS011;11284;48.086;-1.652;2023-05-07T09:26:41;8.27;;;4.70;;
22230;SDS011;11284;48.086;-1.652;2023-05-07T09:29:07;6.53;;;4.25;;
22230;SDS011;11284;48.086;-1.652;2023-05-07T09:31:39;7.10;;;3.92;;
22230;SDS011;11284;48.086;-1.652;2023-05-07T09:34:05;5.45;;;3.80;;
22230;SDS011;11284;48.086;-1.652;2023-05-07T09:36:31;5.97;;;4.07;;
22230;SDS011;11284;48.086;-1.652;2023-05-07T09:39:01;7.32;;;5.43;;
22230;SDS011;11284;48.086;-1.652;2023-05-07T09:41:32;6.05;;;3.60;;
22230;SDS011;11284;48.086;-1.652;2023-05-07T09:43:58;5.70;;;3.92;;
22230;SDS011;11284;48.086;-1.652;2023-05-07T09:46:27;5.85;;;4.00;;
22230;SDS011;11284;48.086;-1.652;2023-05-07T09:48:56;5.75;;;3.55;;
22230;SDS011;11284;48.086;-1.652;2023-05-07T09:53:50;6.22;;;3.85;;
22230;SDS011;11284;48.086;-1.652;2023-05-07T09:56:18;7.85;;;3.80;;
22230;SDS011;11284;48.086;-1.652;2023-05-07T09:58:45;7.53;;;3.75;;
22230;SDS011;11284;48.086;-1.652;2023-05-07T10:01:12;6.15;;;3.72;;
22230;SDS011;11284;48.086;-1.652;2023-05-07T10:03:39;6.22;;;3.63;;
22230;SDS011;11284;48.086;-1.652;2023-05-07T10:06:06;5.97;;;3.60;;
22230;SDS011;11284;48.086;-1.652;2023-05-07T10:08:40;4.65;;;2.95;;
22230;SDS011;11284;48.086;-1.652;2023-05-07T10:11:08;5.25;;;2.75;;
22230;SDS011;11284;48.086;-1.652;2023-05-07T10:13:35;6.75;;;2.70;;
22230;SDS011;11284;48.086;-1.652;2023-05-07T10:16:05;6.20;;;3.40;;
22230;SDS011;11284;48.086;-1.652;2023-05-07T10:18:31;6.22;;;3.75;;
22230;SDS011;11284;48.086;-1.652;2023-05-07T10:21:02;4.82;;;2.95;;
22230;SDS011;11284;48.086;-1.652;2023-05-07T10:23:30;5.68;;;3.33;;
22230;SDS011;11284;48.086;-1.652;2023-05-07T10:25:57;5.07;;;3.20;;
22230;SDS011;11284;48.086;-1.652;2023-05-07T10:28:25;5.35;;;3.28;;
22230;SDS011;11284;48.086;-1.652;2023-05-07T10:31:41;5.80;;;3.30;;
22230;SDS011;11284;48.086;-1.652;2023-05-07T10:33:38;5.57;;;2.88;;
22230;SDS011;11284;48.086;-1.652;2023-05-07T10:36:05;6.88;;;3.13;;
22230;SDS011;11284;48.086;-1.652;2023-05-07T10:38:31;5.35;;;3.10;;
22230;SDS011;11284;48.086;-1.652;2023-05-07T10:40:57;5.78;;;2.95;;
22230;SDS011;11284;48.086;-1.652;2023-05-07T10:43:23;5.72;;;3.08;;
22230;SDS011;11284;48.086;-1.652;2023-05-07T10:48:34;4.97;;;3.17;;
22230;SDS011;11284;48.086;-1.652;2023-05-07T10:51:21;5.43;;;2.85;;
22230;SDS011;11284;48.086;-1.652;2023-05-07T10:53:47;5.18;;;2.63;;
22230;SDS011;11284;48.086;-1.652;2023-05-07T10:58:42;13.60;;;10.48;;
22230;SDS011;11284;48.086;-1.652;2023-05-07T11:01:08;5.03;;;2.83;;
22230;SDS011;11284;48.086;-1.652;2023-05-07T11:03:36;4.70;;;2.53;;
22230;SDS011;11284;48.086;-1.652;2023-05-07T11:06:22;5.25;;;2.38;;
22230;SDS011;11284;48.086;-1.652;2023-05-07T11:08:57;5.65;;;2.95;;
22230;SDS011;11284;48.086;-1.652;2023-05-07T11:14:08;7.93;;;5.45;;
22230;SDS011;11284;48.086;-1.652;2023-05-07T11:16:34;7.47;;;4.85;;
22230;SDS011;11284;48.086;-1.652;2023-05-07T11:19:01;7.43;;;4.80;;
22230;SDS011;11284;48.086;-1.652;2023-05-07T11:21:34;7.53;;;4.78;;
22230;SDS011;11284;48.086;-1.652;2023-05-07T11:24:01;21.55;;;16.40;;
22230;SDS011;11284;48.086;-1.652;2023-05-07T11:26:28;7.47;;;4.95;;
22230;SDS011;11284;48.086;-1.652;2023-05-07T11:28:54;8.77;;;5.97;;
22230;SDS011;11284;48.086;-1.652;2023-05-07T11:31:22;7.10;;;4.45;;
22230;SDS011;11284;48.086;-1.652;2023-05-07T11:33:49;6.65;;;3.88;;
22230;SDS011;11284;48.086;-1.652;2023-05-07T11:36:15;5.53;;;3.35;;
22230;SDS011;11284;48.086;-1.652;2023-05-07T11:38:41;5.97;;;3.60;;
22230;SDS011;11284;48.086;-1.652;2023-05-07T11:41:07;7.72;;;4.40;;
22230;SDS011;11284;48.086;-1.652;2023-05-07T11:43:33;8.25;;;5.25;;
22230;SDS011;11284;48.086;-1.652;2023-05-07T11:48:33;7.38;;;4.78;;
22230;SDS011;11284;48.086;-1.652;2023-05-07T11:51:03;6.38;;;3.70;;
22230;SDS011;11284;48.086;-1.652;2023-05-07T11:53:36;6.55;;;3.72;;
22230;SDS011;11284;48.086;-1.652;2023-05-07T11:56:06;7.13;;;3.88;;
22230;SDS011;11284;48.086;-1.652;2023-05-07T11:58:32;6.65;;;4.13;;
22230;SDS011;11284;48.086;-1.652;2023-05-07T12:00:59;6.68;;;3.60;;
22230;SDS011;11284;48.086;-1.652;2023-05-07T12:03:25;6.47;;;3.90;;
22230;SDS011;11284;48.086;-1.652;2023-05-07T12:05:51;6.90;;;3.83;;
22230;SDS011;11284;48.086;-1.652;2023-05-07T12:08:17;5.88;;;3.30;;
22230;SDS011;11284;48.086;-1.652;2023-05-07T12:10:43;6.50;;;3.30;;
22230;SDS011;11284;48.086;-1.652;2023-05-07T12:15:42;9.93;;;4.78;;
22230;SDS011;11284;48.086;-1.652;2023-05-07T12:18:08;8.43;;;4.93;;
22230;SDS011;11284;48.086;-1.652;2023-05-07T12:20:35;9.52;;;4.88;;
22230;SDS011;11284;48.086;-1.652;2023-05-07T12:23:01;9.57;;;4.82;;
22230;SDS011;11284;48.086;-1.652;2023-05-07T12:25:38;7.38;;;4.25;;
22230;SDS011;11284;48.086;-1.652;2023-05-07T12:28:04;11.75;;;5.65;;
22230;SDS011;11284;48.086;-1.652;2023-05-07T12:30:32;10.80;;;4.88;;
22230;SDS011;11284;48.086;-1.652;2023-05-07T12:32:58;9.50;;;4.25;;
22230;SDS011;11284;48.086;-1.652;2023-05-07T12:35:30;10.38;;;4.80;;
22230;SDS011;11284;48.086;-1.652;2023-05-07T12:37:57;7.78;;;4.20;;
22230;SDS011;11284;48.086;-1.652;2023-05-07T12:40:29;10.57;;;5.78;;
22230;SDS011;11284;48.086;-1.652;2023-05-07T12:43:00;11.77;;;6.88;;
22230;SDS011;11284;48.086;-1.652;2023-05-07T12:45:26;11.98;;;6.25;;
22230;SDS011;11284;48.086;-1.652;2023-05-07T12:47:52;12.70;;;5.32;;
22230;SDS011;11284;48.086;-1.652;2023-05-07T12:50:18;13.57;;;5.72;;
22230;SDS011;11284;48.086;-1.652;2023-05-07T12:52:47;9.80;;;4.53;;
22230;SDS011;11284;48.086;-1.652;2023-05-07T12:55:16;10.23;;;4.38;;
22230;SDS011;11284;48.086;-1.652;2023-05-07T12:57:43;8.10;;;3.78;;
22230;SDS011;11284;48.086;-1.652;2023-05-07T13:00:09;8.55;;;3.83;;
22230;SDS011;11284;48.086;-1.652;2023-05-07T13:02:39;11.57;;;5.80;;
22230;SDS011;11284;48.086;-1.652;2023-05-07T13:05:06;10.80;;;4.53;;
22230;SDS011;11284;48.086;-1.652;2023-05-07T13:07:32;8.52;;;3.90;;
22230;SDS011;11284;48.086;-1.652;2023-05-07T13:09:58;10.68;;;4.28;;
22230;SDS011;11284;48.086;-1.652;2023-05-07T13:12:24;11.35;;;4.95;;
22230;SDS011;11284;48.086;-1.652;2023-05-07T13:14:50;9.60;;;3.92;;
22230;SDS011;11284;48.086;-1.652;2023-05-07T13:17:16;9.98;;;4.93;;
22230;SDS011;11284;48.086;-1.652;2023-05-07T13:19:43;7.88;;;3.55;;
22230;SDS011;11284;48.086;-1.652;2023-05-07T13:22:09;9.23;;;3.50;;
22230;SDS011;11284;48.086;-1.652;2023-05-07T13:24:35;7.70;;;3.33;;
22230;SDS011;11284;48.086;-1.652;2023-05-07T13:27:02;7.53;;;3.45;;
22230;SDS011;11284;48.086;-1.652;2023-05-07T13:29:28;6.15;;;3.10;;
22230;SDS011;11284;48.086;-1.652;2023-05-07T13:31:58;7.00;;;3.13;;
22230;SDS011;11284;48.086;-1.652;2023-05-07T13:34:24;6.80;;;3.00;;
22230;SDS011;11284;48.086;-1.652;2023-05-07T13:36:50;6.57;;;2.70;;
22230;SDS011;11284;48.086;-1.652;2023-05-07T13:39:17;6.88;;;2.67;;
22230;SDS011;11284;48.086;-1.652;2023-05-07T13:41:43;7.50;;;2.50;;
22230;SDS011;11284;48.086;-1.652;2023-05-07T13:44:09;7.80;;;2.92;;
22230;SDS011;11284;48.086;-1.652;2023-05-07T13:46:35;5.53;;;2.70;;
22230;SDS011;11284;48.086;-1.652;2023-05-07T13:49:01;7.03;;;2.72;;
22230;SDS011;11284;48.086;-1.652;2023-05-07T13:51:27;9.23;;;2.70;;
22230;SDS011;11284;48.086;-1.652;2023-05-07T13:53:53;5.60;;;2.67;;
22230;SDS011;11284;48.086;-1.652;2023-05-07T13:56:19;5.78;;;2.60;;
22230;SDS011;11284;48.086;-1.652;2023-05-07T13:58:46;6.07;;;2.60;;
22230;SDS011;11284;48.086;-1.652;2023-05-07T14:01:12;6.57;;;2.28;;
22230;SDS011;11284;48.086;-1.652;2023-05-07T14:03:38;7.60;;;2.53;;
22230;SDS011;11284;48.086;-1.652;2023-05-07T14:06:04;6.68;;;2.40;;
22230;SDS011;11284;48.086;-1.652;2023-05-07T14:08:31;6.22;;;2.00;;
22230;SDS011;11284;48.086;-1.652;2023-05-07T14:10:57;5.22;;;1.90;;
22230;SDS011;11284;48.086;-1.652;2023-05-07T14:13:23;6.53;;;3.03;;
22230;SDS011;11284;48.086;-1.652;2023-05-07T14:15:49;6.75;;;2.30;;
22230;SDS011;11284;48.086;-1.652;2023-05-07T14:18:15;4.88;;;2.15;;
22230;SDS011;11284;48.086;-1.652;2023-05-07T14:20:41;4.10;;;1.73;;
22230;SDS011;11284;48.086;-1.652;2023-05-07T14:23:11;6.15;;;1.88;;
22230;SDS011;11284;48.086;-1.652;2023-05-07T14:25:37;6.25;;;2.70;;
22230;SDS011;11284;48.086;-1.652;2023-05-07T14:28:04;5.80;;;2.50;;
22230;SDS011;11284;48.086;-1.652;2023-05-07T14:30:30;5.20;;;2.30;;
22230;SDS011;11284;48.086;-1.652;2023-05-07T14:32:56;5.60;;;2.08;;
22230;SDS011;11284;48.086;-1.652;2023-05-07T14:35:22;3.85;;;1.70;;
22230;SDS011;11284;48.086;-1.652;2023-05-07T14:37:48;5.60;;;2.15;;
22230;SDS011;11284;48.086;-1.652;2023-05-07T14:40:14;6.07;;;2.72;;
22230;SDS011;11284;48.086;-1.652;2023-05-07T14:42:40;4.40;;;1.80;;